Time;durP1;ratioP1;P1;durP2;ratioP2;P2;SDS_P1;SDS_P2;PMS_P1;PMS_P2;Temp;Humidity;BMP_temperature;BMP_pressure;BME280_temperature;BME280_humidity;BME280_pressure;Samples;Min_cycle;Max_cycle;Signal;HPM_P1;HPM_P2
2021/03/26 00:00:20;;;;;;;18.17;5.15;;;18.30;45.10;;;;;;1041997;28;20035;-73
2021/03/26 00:00:57;;;;;;;19.83;5.18;;;18.40;45.50;;;;;;1043118;28;20083;-73
2021/03/26 00:01:35;;;;;;;23.42;5.72;;;18.40;45.40;;;;;;1042621;28;20022;-73
2021/03/26 00:02:07;;;;;;;18.25;5.20;;;18.40;45.00;;;;;;1040248;28;20146;-73
2021/03/26 00:02:39;;;;;;;19.38;5.22;;;18.50;45.00;;;;;;1038462;28;20017;-73
2021/03/26 00:03:15;;;;;;;20.30;5.30;;;18.40;45.00;;;;;;1039034;28;20022;-74
2021/03/26 00:03:50;;;;;;;17.45;5.18;;;18.40;45.20;;;;;;1042857;28;20497;-73
2021/03/26 00:04:21;;;;;;;17.27;4.80;;;18.40;45.10;;;;;;1040898;28;20028;-74
2021/03/26 00:04:53;;;;;;;21.77;5.07;;;18.40;45.10;;;;;;1038446;28;20463;-73
2021/03/26 00:05:25;;;;;;;19.88;5.05;;;18.30;45.40;;;;;;1034283;28;20069;-73
2021/03/26 00:06:06;;;;;;;17.63;5.13;;;18.30;45.70;;;;;;1034781;28;20083;-73
2021/03/26 00:06:41;;;;;;;16.48;4.97;;;18.30;45.70;;;;;;1035794;28;20113;-73
2021/03/26 00:07:12;;;;;;;20.92;5.80;;;18.30;45.80;;;;;;1036215;28;20373;-73
2021/03/26 00:07:44;;;;;;;18.05;5.57;;;18.30;45.90;;;;;;1038583;28;20041;-73
2021/03/26 00:08:16;;;;;;;22.02;5.68;;;18.30;45.50;;;;;;1038660;28;20114;-74
2021/03/26 00:08:47;;;;;;;21.63;5.38;;;18.30;45.40;;;;;;1036948;28;20021;-73
2021/03/26 00:09:23;;;;;;;19.08;5.50;;;18.30;45.60;;;;;;1042702;28;20442;-73
2021/03/26 00:09:54;;;;;;;19.48;5.18;;;18.30;45.60;;;;;;1041279;28;20020;-73
2021/03/26 00:10:26;;;;;;;18.30;5.28;;;18.30;45.60;;;;;;1042760;28;20029;-73
2021/03/26 00:10:57;;;;;;;24.23;5.95;;;18.30;45.60;;;;;;1041233;28;20060;-73
2021/03/26 00:11:30;;;;;;;21.55;5.43;;;18.30;45.30;;;;;;1038400;28;20106;-73
2021/03/26 00:12:09;;;;;;;23.75;5.75;;;18.40;45.20;;;;;;1038045;28;20077;-73
2021/03/26 00:12:42;;;;;;;20.83;5.43;;;18.30;45.00;;;;;;1042664;28;20040;-73
2021/03/26 00:13:14;;;;;;;21.02;5.28;;;18.30;45.10;;;;;;1042774;28;20352;-73
2021/03/26 00:13:45;;;;;;;22.08;5.43;;;18.30;45.30;;;;;;1042130;28;20359;-73
2021/03/26 00:14:18;;;;;;;19.30;5.60;;;18.30;45.40;;;;;;1042165;28;20021;-73
2021/03/26 00:14:49;;;;;;;25.75;5.35;;;18.30;45.40;;;;;;1038867;28;20032;-73
2021/03/26 00:15:21;;;;;;;19.80;5.22;;;18.30;45.50;;;;;;1042727;28;20450;-73
2021/03/26 00:15:52;;;;;;;20.40;5.43;;;18.20;45.50;;;;;;1041721;28;20097;-73
2021/03/26 00:16:24;;;;;;;18.27;5.00;;;18.20;45.70;;;;;;1038989;28;20025;-74
2021/03/26 00:16:56;;;;;;;18.77;5.18;;;18.20;45.80;;;;;;1034416;28;20037;-73
2021/03/26 00:17:27;;;;;;;21.40;5.57;;;18.20;45.80;;;;;;1035389;28;20022;-73
2021/03/26 00:17:58;;;;;;;18.00;5.13;;;18.20;45.80;;;;;;1032088;28;20018;-72
2021/03/26 00:18:30;;;;;;;21.85;5.70;;;18.20;45.70;;;;;;1037192;28;20100;-72
2021/03/26 00:19:01;;;;;;;22.00;5.53;;;18.20;45.50;;;;;;1040817;28;20025;-73
2021/03/26 00:19:33;;;;;;;22.08;5.35;;;18.10;45.40;;;;;;1036121;28;20115;-73
2021/03/26 00:20:06;;;;;;;22.55;5.45;;;18.10;45.60;;;;;;1038048;28;20064;-73
2021/03/26 00:20:37;;;;;;;20.67;5.60;;;18.10;46.00;;;;;;1036464;28;20105;-73
2021/03/26 00:21:09;;;;;;;23.83;5.35;;;18.10;45.90;;;;;;1037338;28;20017;-72
2021/03/26 00:21:41;;;;;;;22.08;5.38;;;18.10;45.80;;;;;;1045388;28;20060;-73
2021/03/26 00:22:12;;;;;;;24.33;5.50;;;18.10;45.80;;;;;;1042448;28;20020;-73
2021/03/26 00:22:44;;;;;;;18.48;5.32;;;18.10;45.70;;;;;;1046022;28;20017;-73
2021/03/26 00:23:16;;;;;;;21.63;6.00;;;18.10;45.70;;;;;;1044749;28;20029;-73
2021/03/26 00:23:47;;;;;;;14.77;5.07;;;18.10;45.80;;;;;;1041786;28;20059;-73
2021/03/26 00:24:18;;;;;;;20.20;5.22;;;18.10;45.30;;;;;;1040308;28;20028;-73
2021/03/26 00:24:50;;;;;;;19.95;5.22;;;18.10;45.40;;;;;;1036450;28;20026;-74
2021/03/26 00:25:21;;;;;;;16.95;5.07;;;18.10;45.30;;;;;;1038703;28;20032;-73
2021/03/26 00:25:53;;;;;;;21.10;5.18;;;18.10;45.30;;;;;;1035271;28;20026;-73
2021/03/26 00:26:24;;;;;;;17.73;4.90;;;18.10;45.30;;;;;;1037929;28;20022;-73
2021/03/26 00:26:56;;;;;;;19.30;4.82;;;18.10;45.10;;;;;;1040609;28;20030;-73
2021/03/26 00:27:27;;;;;;;18.67;4.85;;;18.00;44.90;;;;;;1040837;28;20100;-73
2021/03/26 00:27:59;;;;;;;18.52;5.43;;;18.10;44.60;;;;;;1039411;28;20064;-73
2021/03/26 00:28:31;;;;;;;18.17;4.78;;;18.10;43.70;;;;;;1037140;28;20038;-74
2021/03/26 00:29:11;;;;;;;18.15;5.13;;;18.10;43.70;;;;;;1038494;28;20061;-74
2021/03/26 00:29:42;;;;;;;19.48;4.82;;;18.00;43.90;;;;;;1037210;28;20029;-74
2021/03/26 00:30:15;;;;;;;16.67;4.50;;;17.90;44.10;;;;;;1036980;28;20037;-74
2021/03/26 00:30:47;;;;;;;17.67;5.03;;;17.90;44.40;;;;;;1039804;28;20044;-74
2021/03/26 00:31:18;;;;;;;15.65;4.40;;;17.90;44.40;;;;;;1042036;28;20474;-74
2021/03/26 00:31:50;;;;;;;21.27;5.03;;;17.90;44.50;;;;;;1042620;28;20076;-73
2021/03/26 00:32:21;;;;;;;17.73;5.10;;;17.80;44.40;;;;;;1038732;28;20037;-74
2021/03/26 00:32:53;;;;;;;17.52;5.20;;;17.90;44.60;;;;;;1036942;28;20025;-73
2021/03/26 00:33:25;;;;;;;20.25;4.90;;;17.80;44.90;;;;;;1037355;28;20026;-73
2021/03/26 00:33:56;;;;;;;19.02;5.07;;;17.90;44.90;;;;;;1036090;28;20435;-73
2021/03/26 00:34:28;;;;;;;23.00;5.03;;;17.90;44.80;;;;;;1039065;28;20092;-74
2021/03/26 00:35:00;;;;;;;19.83;5.00;;;17.90;44.80;;;;;;1041779;28;20036;-73
2021/03/26 00:35:32;;;;;;;19.80;5.40;;;17.90;44.70;;;;;;1042900;28;20017;-75
2021/03/26 00:36:04;;;;;;;21.15;5.47;;;17.90;44.60;;;;;;1037273;28;20096;-75
2021/03/26 00:36:36;;;;;;;17.80;5.20;;;17.90;44.70;;;;;;1039869;28;20454;-76
2021/03/26 00:37:08;;;;;;;21.85;5.30;;;17.90;44.60;;;;;;1039599;28;20035;-76
2021/03/26 00:37:40;;;;;;;20.90;5.00;;;17.90;44.60;;;;;;1042423;28;20027;-75
2021/03/26 00:38:11;;;;;;;21.63;5.35;;;17.90;44.80;;;;;;1042956;28;20048;-75
2021/03/26 00:38:42;;;;;;;19.20;5.35;;;17.80;45.00;;;;;;1038352;28;20087;-75
2021/03/26 00:39:14;;;;;;;26.63;5.55;;;17.80;45.20;;;;;;1040473;28;20423;-74
2021/03/26 00:39:45;;;;;;;20.45;5.20;;;17.80;45.10;;;;;;1038273;28;20060;-74
2021/03/26 00:40:18;;;;;;;19.88;5.10;;;17.70;45.10;;;;;;1039476;28;20069;-74
2021/03/26 00:40:50;;;;;;;19.02;5.43;;;17.70;45.30;;;;;;1036968;28;20061;-73
2021/03/26 00:41:22;;;;;;;24.13;5.85;;;17.70;45.40;;;;;;1038133;28;20328;-73
2021/03/26 00:41:53;;;;;;;22.40;5.43;;;17.60;45.50;;;;;;1039014;28;20034;-73
2021/03/26 00:42:25;;;;;;;20.33;4.93;;;17.60;45.60;;;;;;1038420;28;20033;-73
2021/03/26 00:42:56;;;;;;;22.70;5.60;;;17.60;45.50;;;;;;1038457;28;20026;-73
2021/03/26 00:43:28;;;;;;;23.70;5.50;;;17.60;45.40;;;;;;1038569;28;20344;-73
2021/03/26 00:43:59;;;;;;;19.83;5.30;;;17.60;45.50;;;;;;1037789;28;20049;-73
2021/03/26 00:44:31;;;;;;;19.25;5.43;;;17.50;45.30;;;;;;1043351;28;20018;-73
2021/03/26 00:45:05;;;;;;;20.13;5.45;;;17.50;45.30;;;;;;1042561;28;20409;-73
2021/03/26 00:45:37;;;;;;;19.73;5.07;;;17.50;45.50;;;;;;1038268;28;20018;-73
2021/03/26 00:46:09;;;;;;;20.30;5.68;;;17.40;45.60;;;;;;1034531;28;20423;-73
2021/03/26 00:46:41;;;;;;;23.75;5.47;;;17.40;45.60;;;;;;1035749;28;20014;-73
2021/03/26 00:47:13;;;;;;;20.40;5.45;;;17.40;45.60;;;;;;1031953;28;20486;-73
2021/03/26 00:47:45;;;;;;;25.15;5.30;;;17.40;45.70;;;;;;1032749;28;20018;-73
2021/03/26 00:48:19;;;;;;;19.23;5.28;;;17.40;45.80;;;;;;1038556;28;20018;-73
2021/03/26 00:48:50;;;;;;;16.35;4.72;;;17.40;45.90;;;;;;1041048;28;20022;-74
2021/03/26 00:49:22;;;;;;;23.17;5.63;;;17.30;45.90;;;;;;1043829;28;20029;-74
2021/03/26 00:49:53;;;;;;;20.58;5.78;;;17.30;46.40;;;;;;1040757;28;20051;-74
2021/03/26 00:50:37;;;;;;;21.33;5.57;;;17.30;46.50;;;;;;1037668;28;20018;-75
2021/03/26 00:51:08;;;;;;;21.20;5.38;;;17.40;46.60;;;;;;1043538;28;20107;-74
2021/03/26 00:51:41;;;;;;;23.95;5.43;;;17.40;46.70;;;;;;1043707;28;20032;-74
2021/03/26 00:52:12;;;;;;;21.80;5.13;;;17.30;46.70;;;;;;1042942;28;20033;-74
2021/03/26 00:52:44;;;;;;;24.05;5.50;;;17.30;46.90;;;;;;1040800;28;20057;-74
2021/03/26 00:53:19;;;;;;;23.35;5.78;;;17.30;46.90;;;;;;1036731;28;20022;-73
2021/03/26 00:53:51;;;;;;;24.17;5.75;;;17.30;47.00;;;;;;1038265;28;20021;-73
2021/03/26 00:54:22;;;;;;;22.73;6.18;;;17.30;47.10;;;;;;1038811;28;20075;-74
2021/03/26 00:54:53;;;;;;;27.13;6.45;;;17.20;47.40;;;;;;1038790;28;20092;-73
2021/03/26 00:55:25;;;;;;;23.10;5.65;;;17.20;47.50;;;;;;1039551;28;20049;-74
2021/03/26 00:55:57;;;;;;;21.17;5.32;;;17.20;47.50;;;;;;1040684;28;20028;-73
2021/03/26 00:56:28;;;;;;;23.52;5.60;;;17.10;47.60;;;;;;1040528;28;20018;-74
2021/03/26 00:57:00;;;;;;;23.20;6.10;;;17.10;47.60;;;;;;1038660;28;20014;-73
2021/03/26 00:57:31;;;;;;;23.98;5.60;;;17.10;47.80;;;;;;1041704;28;20479;-73
2021/03/26 00:58:03;;;;;;;20.77;6.38;;;17.10;48.00;;;;;;1042050;28;20010;-72
2021/03/26 00:58:35;;;;;;;23.38;5.97;;;17.00;48.10;;;;;;1042439;28;20485;-73
2021/03/26 00:59:06;;;;;;;20.42;5.50;;;17.00;48.20;;;;;;1042649;28;20021;-73
2021/03/26 00:59:38;;;;;;;21.95;6.18;;;17.00;48.30;;;;;;1042849;28;20048;-73
2021/03/26 01:00:15;;;;;;;17.48;5.40;;;17.00;48.30;;;;;;1042501;28;20030;-72
2021/03/26 01:00:47;;;;;;;22.83;6.25;;;17.00;48.60;;;;;;1041535;28;20466;-73
2021/03/26 01:01:19;;;;;;;21.90;6.00;;;17.00;48.40;;;;;;1042723;28;20017;-73
2021/03/26 01:01:50;;;;;;;22.33;5.70;;;17.00;48.40;;;;;;1040286;28;20341;-73
2021/03/26 01:02:21;;;;;;;27.67;6.25;;;17.00;48.30;;;;;;1039180;28;20022;-74
2021/03/26 01:02:53;;;;;;;26.10;6.35;;;17.00;48.30;;;;;;1037656;28;20073;-74
2021/03/26 01:03:27;;;;;;;22.33;5.90;;;17.00;47.90;;;;;;1038260;28;20030;-73
2021/03/26 01:03:59;;;;;;;24.80;6.20;;;17.00;47.80;;;;;;1038865;28;20115;-73
2021/03/26 01:04:30;;;;;;;21.88;5.90;;;17.00;47.60;;;;;;1041530;28;20021;-73
2021/03/26 01:05:09;;;;;;;19.65;5.85;;;17.00;47.60;;;;;;1043531;28;20017;-74
2021/03/26 01:05:44;;;;;;;24.17;6.00;;;16.90;47.70;;;;;;1042247;28;20410;-73
2021/03/26 01:06:16;;;;;;;24.48;6.13;;;16.90;47.80;;;;;;1042306;28;20017;-73
2021/03/26 01:06:48;;;;;;;23.33;5.65;;;16.90;47.80;;;;;;1042724;28;20025;-74
2021/03/26 01:07:19;;;;;;;28.52;6.18;;;16.90;47.80;;;;;;1042610;28;20100;-74
2021/03/26 01:07:51;;;;;;;24.50;6.30;;;16.80;48.20;;;;;;1040810;28;20339;-74
2021/03/26 01:08:22;;;;;;;24.00;5.70;;;16.80;48.20;;;;;;1038831;28;20018;-74
2021/03/26 01:08:54;;;;;;;22.45;5.65;;;16.80;48.20;;;;;;1038903;28;20041;-74
2021/03/26 01:09:26;;;;;;;21.98;5.65;;;16.70;48.20;;;;;;1040911;28;20039;-73
2021/03/26 01:09:57;;;;;;;26.55;6.47;;;16.70;48.40;;;;;;1042204;28;20013;-74
2021/03/26 01:10:35;;;;;;;24.58;5.63;;;16.70;48.40;;;;;;1042483;28;20135;-73
2021/03/26 01:11:24;;;;;;;20.45;6.03;;;16.60;48.50;;;;;;1036989;28;20481;-74
2021/03/26 01:11:55;;;;;;;26.13;5.90;;;16.60;48.80;;;;;;1038033;28;20033;-73
2021/03/26 01:12:26;;;;;;;21.92;5.55;;;16.60;49.00;;;;;;1038166;28;20030;-74
2021/03/26 01:12:59;;;;;;;25.17;7.03;;;16.50;49.10;;;;;;1039036;28;20040;-73
2021/03/26 01:13:31;;;;;;;20.10;5.57;;;16.60;49.20;;;;;;1037856;28;20458;-74
2021/03/26 01:14:05;;;;;;;28.58;5.88;;;16.50;49.20;;;;;;1038878;28;20018;-73
2021/03/26 01:14:37;;;;;;;21.10;5.97;;;16.60;49.20;;;;;;1042930;28;20013;-73
2021/03/26 01:15:11;;;;;;;26.75;5.97;;;16.60;49.00;;;;;;1042597;28;20014;-73
2021/03/26 01:15:42;;;;;;;24.98;5.85;;;16.50;49.00;;;;;;1041606;28;20022;-74
2021/03/26 01:16:16;;;;;;;24.60;6.20;;;16.50;49.00;;;;;;1042480;28;20064;-74
2021/03/26 01:16:48;;;;;;;27.23;6.05;;;16.50;49.10;;;;;;1041456;28;20063;-73
2021/03/26 01:17:20;;;;;;;27.30;6.30;;;16.40;49.20;;;;;;1041608;28;20465;-73
2021/03/26 01:17:52;;;;;;;30.85;6.53;;;16.50;49.90;;;;;;1042301;28;20005;-74
2021/03/26 01:18:28;;;;;;;25.05;6.53;;;16.50;49.30;;;;;;1046111;28;20009;-73
2021/03/26 01:19:01;;;;;;;31.77;7.25;;;16.50;49.30;;;;;;1047240;28;20012;-73
2021/03/26 01:19:38;;;;;;;25.52;6.13;;;16.50;49.30;;;;;;1038779;28;20114;-73
2021/03/26 01:20:16;;;;;;;23.48;6.18;;;16.50;49.10;;;;;;1037471;28;20064;-73
2021/03/26 01:20:47;;;;;;;28.52;6.55;;;16.40;49.30;;;;;;1037763;28;20094;-72
2021/03/26 01:21:24;;;;;;;23.73;5.93;;;16.40;49.40;;;;;;1042070;28;20064;-73
2021/03/26 01:21:56;;;;;;;27.58;6.30;;;16.30;49.60;;;;;;1041679;28;20050;-73
2021/03/26 01:22:27;;;;;;;30.42;6.47;;;16.30;49.70;;;;;;1044979;28;20074;-73
2021/03/26 01:22:59;;;;;;;28.20;6.28;;;16.30;49.70;;;;;;1044447;28;20446;-73
2021/03/26 01:23:30;;;;;;;31.48;7.18;;;16.30;49.80;;;;;;1041554;28;20118;-72
2021/03/26 01:24:04;;;;;;;26.92;6.40;;;16.30;49.80;;;;;;1040848;28;20413;-73
2021/03/26 01:24:35;;;;;;;27.02;6.93;;;16.20;49.80;;;;;;1035660;28;20035;-72
2021/03/26 01:25:18;;;;;;;26.85;6.35;;;16.30;50.00;;;;;;1038408;28;20072;-73
2021/03/26 01:25:50;;;;;;;31.02;7.18;;;16.20;49.90;;;;;;1039541;28;20032;-72
2021/03/26 01:26:22;;;;;;;27.15;6.72;;;16.20;50.00;;;;;;1036140;28;20105;-73
2021/03/26 01:26:53;;;;;;;27.77;6.57;;;16.20;50.00;;;;;;1042906;28;20024;-74
2021/03/26 01:27:24;;;;;;;25.50;6.35;;;16.20;50.10;;;;;;1037400;28;20475;-73
2021/03/26 01:27:56;;;;;;;26.58;5.90;;;16.20;50.10;;;;;;1038646;28;20014;-73
2021/03/26 01:28:29;;;;;;;23.60;6.03;;;16.10;50.10;;;;;;1037647;28;20018;-73
2021/03/26 01:29:00;;;;;;;23.05;5.97;;;16.10;50.20;;;;;;1035169;28;20021;-73
2021/03/26 01:29:32;;;;;;;26.80;6.28;;;16.10;50.40;;;;;;1036020;28;20068;-73
2021/03/26 01:30:11;;;;;;;30.20;6.68;;;16.10;50.60;;;;;;1037032;28;20026;-73
2021/03/26 01:30:42;;;;;;;26.25;6.60;;;16.10;50.60;;;;;;1035939;28;20068;-73
2021/03/26 01:31:14;;;;;;;24.70;6.30;;;16.10;50.60;;;;;;1035774;28;20041;-72
2021/03/26 01:31:45;;;;;;;29.92;6.38;;;16.10;50.50;;;;;;1040664;28;20068;-72
2021/03/26 01:32:16;;;;;;;30.27;6.50;;;16.10;50.40;;;;;;1041430;28;20041;-72
2021/03/26 01:32:48;;;;;;;27.63;6.63;;;16.20;51.00;;;;;;1042950;28;20354;-72
2021/03/26 01:33:21;;;;;;;26.35;6.40;;;16.20;50.40;;;;;;1041946;28;20450;-72
2021/03/26 01:33:53;;;;;;;29.63;6.88;;;16.10;50.40;;;;;;1038362;28;20017;-72
2021/03/26 01:34:25;;;;;;;26.00;6.47;;;16.10;50.40;;;;;;1038677;28;20018;-72
2021/03/26 01:34:56;;;;;;;26.70;5.85;;;16.00;50.50;;;;;;1042464;28;20419;-72
2021/03/26 01:35:29;;;;;;;32.28;6.53;;;16.00;50.80;;;;;;1042469;28;20049;-73
2021/03/26 01:36:01;;;;;;;27.67;7.32;;;16.00;50.60;;;;;;1043220;28;20021;-72
2021/03/26 01:36:32;;;;;;;24.85;6.07;;;16.10;50.60;;;;;;1038110;28;20026;-72
2021/03/26 01:37:04;;;;;;;27.80;6.85;;;16.00;50.60;;;;;;1034320;28;20041;-72
2021/03/26 01:37:36;;;;;;;27.20;6.53;;;16.00;50.70;;;;;;1034219;28;20071;-73
2021/03/26 01:38:08;;;;;;;29.23;6.85;;;16.00;51.00;;;;;;1033700;28;20548;-72
2021/03/26 01:38:40;;;;;;;29.70;6.53;;;15.90;51.10;;;;;;1032262;28;20022;-73
2021/03/26 01:39:12;;;;;;;27.52;6.78;;;15.90;51.30;;;;;;1029367;28;20023;-72
2021/03/26 01:39:43;;;;;;;32.92;7.20;;;15.90;51.30;;;;;;1034229;28;20377;-73
2021/03/26 01:40:18;;;;;;;27.92;6.22;;;15.90;51.30;;;;;;1033729;28;20021;-73
2021/03/26 01:40:53;;;;;;;26.10;6.35;;;15.80;51.20;;;;;;1036922;28;20057;-74
2021/03/26 01:41:40;;;;;;;38.17;6.72;;;15.90;51.20;;;;;;1034783;28;20382;-73
2021/03/26 01:42:27;;;;;;;28.63;6.43;;;15.90;51.10;;;;;;1035246;28;20032;-73
2021/03/26 01:43:08;;;;;;;23.48;6.45;;;15.80;51.20;;;;;;1038563;28;20013;-73
2021/03/26 01:43:42;;;;;;;22.85;5.93;;;15.80;51.20;;;;;;1037761;28;20032;-73
2021/03/26 01:44:17;;;;;;;29.38;6.57;;;15.70;51.30;;;;;;1033604;28;20036;-73
2021/03/26 01:44:48;;;;;;;29.70;6.97;;;15.70;51.40;;;;;;1035389;28;20034;-73
2021/03/26 01:45:23;;;;;;;23.58;6.80;;;15.70;51.40;;;;;;1035811;28;20460;-72
2021/03/26 01:45:56;;;;;;;24.02;6.35;;;15.70;51.30;;;;;;1036434;28;20023;-73
2021/03/26 01:46:28;;;;;;;27.73;6.93;;;15.70;51.30;;;;;;1035223;28;20312;-73
2021/03/26 01:47:00;;;;;;;21.52;6.05;;;15.70;51.20;;;;;;1034157;28;20094;-73
2021/03/26 01:47:31;;;;;;;25.15;5.82;;;15.60;51.10;;;;;;1033939;28;20030;-72
2021/03/26 01:48:04;;;;;;;24.20;5.43;;;15.50;51.10;;;;;;1032764;28;20386;-73
2021/03/26 01:48:41;;;;;;;26.35;6.18;;;15.50;51.30;;;;;;1038135;28;20049;-74
2021/03/26 01:49:13;;;;;;;27.95;6.53;;;15.50;51.40;;;;;;1035843;28;20098;-75
2021/03/26 01:49:45;;;;;;;23.33;5.93;;;15.40;51.40;;;;;;1038462;28;20033;-74
2021/03/26 01:50:20;;;;;;;23.83;5.75;;;15.40;51.40;;;;;;1035969;28;20023;-75
2021/03/26 01:50:53;;;;;;;24.50;6.00;;;15.30;51.30;;;;;;1037243;28;20029;-73
2021/03/26 01:51:34;;;;;;;21.92;5.90;;;15.40;51.40;;;;;;1040516;28;20486;-74
2021/03/26 01:52:06;;;;;;;32.88;7.13;;;15.30;51.50;;;;;;1037310;28;20091;-73
2021/03/26 01:52:37;;;;;;;27.05;6.53;;;15.40;51.80;;;;;;1040858;28;20118;-74
2021/03/26 01:53:09;;;;;;;31.10;6.57;;;15.40;51.70;;;;;;1037823;28;20025;-73
2021/03/26 01:53:41;;;;;;;27.25;6.00;;;15.40;51.50;;;;;;1033769;28;20033;-73
2021/03/26 01:54:17;;;;;;;24.25;6.15;;;15.30;51.50;;;;;;1031139;28;20023;-73
2021/03/26 01:54:48;;;;;;;27.30;6.50;;;15.30;51.60;;;;;;1031359;28;20045;-74
2021/03/26 01:55:28;;;;;;;27.05;6.38;;;15.40;51.80;;;;;;1039030;28;20018;-74
2021/03/26 01:56:02;;;;;;;27.85;5.88;;;15.30;51.80;;;;;;1040685;28;20022;-74
2021/03/26 01:56:34;;;;;;;23.77;6.25;;;15.40;51.70;;;;;;1038821;28;20033;-74
2021/03/26 01:57:06;;;;;;;26.15;5.70;;;15.40;51.70;;;;;;1040416;28;20017;-74
2021/03/26 01:57:37;;;;;;;23.70;6.20;;;15.30;51.70;;;;;;1034260;28;20474;-74
2021/03/26 01:58:11;;;;;;;25.63;6.20;;;15.40;51.80;;;;;;1039496;28;20111;-75
2021/03/26 01:58:43;;;;;;;26.42;6.13;;;15.30;51.80;;;;;;1036091;28;20450;-74
2021/03/26 01:59:15;;;;;;;32.28;7.07;;;15.30;51.70;;;;;;1037044;28;20022;-73
2021/03/26 01:59:46;;;;;;;32.40;7.40;;;15.30;51.70;;;;;;1036998;28;20498;-72
2021/03/26 02:00:33;;;;;;;23.02;6.30;;;15.30;51.70;;;;;;1036627;28;20030;-73
2021/03/26 02:01:44;;;;;;;34.22;6.95;;;15.20;51.80;;;;;;1037537;28;20033;-74
2021/03/26 02:02:20;;;;;;;22.73;5.85;;;15.20;51.90;;;;;;1037167;28;20079;-73
2021/03/26 02:02:52;;;;;;;24.95;6.05;;;15.20;52.00;;;;;;1040584;28;20022;-73
2021/03/26 02:03:38;;;;;;;30.73;6.65;;;15.10;52.20;;;;;;1040701;28;20051;-73
2021/03/26 02:04:13;;;;;;;25.50;6.38;;;15.10;52.50;;;;;;1037054;28;20448;-73
2021/03/26 02:04:47;;;;;;;26.25;6.78;;;15.10;52.60;;;;;;1037950;28;20017;-73
2021/03/26 02:05:25;;;;;;;32.75;7.18;;;15.10;52.50;;;;;;1043252;28;20020;-73
2021/03/26 02:05:59;;;;;;;28.35;7.18;;;15.00;52.50;;;;;;1044034;28;20045;-73
2021/03/26 02:06:36;;;;;;;32.80;7.03;;;15.00;52.60;;;;;;1042530;28;20104;-73
2021/03/26 02:07:07;;;;;;;27.20;7.18;;;15.10;52.70;;;;;;1038333;28;20454;-73
2021/03/26 02:07:39;;;;;;;25.55;6.32;;;15.00;52.70;;;;;;1037815;28;20399;-74
2021/03/26 02:08:16;;;;;;;26.00;7.07;;;15.10;52.70;;;;;;1037254;28;20056;-73
2021/03/26 02:08:49;;;;;;;24.27;6.18;;;15.00;52.80;;;;;;1039307;28;20347;-73
2021/03/26 02:09:26;;;;;;;23.27;6.10;;;15.00;52.90;;;;;;1036247;28;20026;-73
2021/03/26 02:09:57;;;;;;;29.02;6.95;;;14.90;53.10;;;;;;1039636;28;20102;-73
2021/03/26 02:10:29;;;;;;;29.23;7.15;;;14.90;53.20;;;;;;1042010;28;20056;-72
2021/03/26 02:11:21;;;;;;;25.10;7.10;;;14.90;53.20;;;;;;1037183;28;20389;-73
2021/03/26 02:12:08;;;;;;;30.83;6.53;;;14.90;53.30;;;;;;1037884;28;20022;-73
2021/03/26 02:12:40;;;;;;;27.63;6.88;;;14.90;53.30;;;;;;1038188;28;20013;-73
2021/03/26 02:13:39;;;;;;;32.92;7.20;;;14.80;53.30;;;;;;1038655;28;20363;-73
2021/03/26 02:14:20;;;;;;;28.35;6.75;;;14.80;53.40;;;;;;1036414;28;20467;-73
2021/03/26 02:14:54;;;;;;;23.92;6.10;;;14.80;53.60;;;;;;1042770;28;20028;-73
2021/03/26 02:15:34;;;;;;;29.17;6.35;;;14.70;53.70;;;;;;1041008;28;20057;-73
2021/03/26 02:16:08;;;;;;;30.73;6.63;;;14.60;53.70;;;;;;1039950;28;20033;-73
2021/03/26 02:16:39;;;;;;;26.00;6.82;;;14.70;53.80;;;;;;1038651;28;20467;-73
2021/03/26 02:17:16;;;;;;;22.92;6.18;;;14.60;53.80;;;;;;1041451;28;20363;-73
2021/03/26 02:17:49;;;;;;;33.38;7.38;;;14.60;54.00;;;;;;1041990;28;20025;-74
2021/03/26 02:18:30;;;;;;;27.70;6.75;;;14.60;53.90;;;;;;1045026;28;20106;-73
2021/03/26 02:19:02;;;;;;;31.55;6.60;;;14.60;54.00;;;;;;1039066;28;20425;-73
2021/03/26 02:19:53;;;;;;;30.15;7.70;;;14.60;54.10;;;;;;1040870;28;20022;-72
2021/03/26 02:20:39;;;;;;;32.42;6.85;;;14.60;54.00;;;;;;1036642;28;20025;-73
2021/03/26 02:21:26;;;;;;;34.72;7.20;;;14.60;54.10;;;;;;1037832;28;20098;-73
2021/03/26 02:21:58;;;;;;;36.42;8.23;;;14.60;54.00;;;;;;1036726;28;20091;-73
2021/03/26 02:22:31;;;;;;;29.30;7.25;;;14.60;54.10;;;;;;1038531;28;20013;-73
2021/03/26 02:23:20;;;;;;;29.52;7.20;;;14.50;54.20;;;;;;1036963;28;20343;-73
2021/03/26 02:23:53;;;;;;;32.03;7.25;;;14.50;54.20;;;;;;1038491;28;20476;-72
2021/03/26 02:24:27;;;;;;;37.47;7.47;;;14.60;54.30;;;;;;1038868;28;20032;-73
2021/03/26 02:24:59;;;;;;;31.60;7.43;;;14.50;54.40;;;;;;1036944;28;20030;-74
2021/03/26 02:25:31;;;;;;;33.13;7.38;;;14.50;54.50;;;;;;1038120;28;20361;-73
2021/03/26 02:26:09;;;;;;;29.08;7.15;;;14.50;54.70;;;;;;1037001;28;20136;-74
2021/03/26 02:26:48;;;;;;;28.23;7.13;;;14.40;54.70;;;;;;1036512;28;20022;-73
2021/03/26 02:27:29;;;;;;;29.00;7.05;;;14.40;54.70;;;;;;1037680;28;20026;-74
2021/03/26 02:28:01;;;;;;;31.85;7.13;;;14.40;54.90;;;;;;1036739;28;20451;-75
2021/03/26 02:28:32;;;;;;;26.88;7.10;;;14.30;55.00;;;;;;1036710;28;20036;-73
2021/03/26 02:29:28;;;;;;;31.83;7.28;;;14.30;55.20;;;;;;1037343;28;20124;-73
2021/03/26 02:30:00;;;;;;;34.42;7.35;;;14.30;55.20;;;;;;1038183;28;20032;-74
2021/03/26 02:30:34;;;;;;;31.60;7.88;;;14.30;55.10;;;;;;1039015;28;20018;-74
2021/03/26 02:31:06;;;;;;;26.45;7.03;;;14.30;55.20;;;;;;1039572;28;20331;-74
2021/03/26 02:31:37;;;;;;;32.03;7.38;;;14.30;55.40;;;;;;1041556;28;20031;-74
2021/03/26 02:32:27;;;;;;;29.88;7.78;;;14.20;55.40;;;;;;1041835;28;20454;-74
2021/03/26 02:32:59;;;;;;;32.47;7.45;;;14.20;55.50;;;;;;1042302;28;20068;-73
2021/03/26 02:33:31;;;;;;;27.80;6.93;;;14.20;55.70;;;;;;1037239;28;20026;-73
2021/03/26 02:34:02;;;;;;;28.77;7.97;;;14.10;55.70;;;;;;1038129;28;20017;-73
2021/03/26 02:34:34;;;;;;;29.05;7.32;;;14.10;55.80;;;;;;1039635;28;20021;-73
2021/03/26 02:35:11;;;;;;;31.17;7.57;;;14.00;56.00;;;;;;1036375;28;20010;-74
2021/03/26 02:36:07;;;;;;;29.58;7.13;;;14.00;55.90;;;;;;1036426;28;20010;-73
2021/03/26 02:36:43;;;;;;;32.70;7.60;;;14.00;56.20;;;;;;1041813;28;20017;-74
2021/03/26 02:37:14;;;;;;;32.72;7.60;;;14.00;56.10;;;;;;1042082;28;20128;-74
2021/03/26 02:38:18;;;;;;;29.98;6.90;;;14.00;56.20;;;;;;1040821;28;20009;-73
2021/03/26 02:38:59;;;;;;;31.55;7.70;;;13.90;56.20;;;;;;1027052;28;20096;-72
2021/03/26 02:39:59;;;;;;;;;;;13.90;56.60;;;;;;1038304;28;20093;-74
2021/03/26 02:40:39;;;;;;;37.25;7.88;;;13.90;56.60;;;;;;1030461;28;20335;-73
2021/03/26 02:41:32;;;;;;;27.80;7.13;;;13.90;56.70;;;;;;1035252;28;20109;-73
2021/03/26 02:42:09;;;;;;;31.90;7.78;;;13.90;56.80;;;;;;1038666;28;20029;-73
2021/03/26 02:42:41;;;;;;;32.88;7.22;;;13.80;56.90;;;;;;1032310;28;20464;-73
2021/03/26 02:43:12;;;;;;;37.53;8.10;;;13.80;56.70;;;;;;1037466;28;20042;-74
2021/03/26 02:43:43;;;;;;;34.97;8.18;;;13.80;56.70;;;;;;1033502;28;20050;-74
2021/03/26 02:44:20;;;;;;;35.88;7.72;;;13.80;56.70;;;;;;1035161;28;20014;-74
2021/03/26 02:45:17;;;;;;;30.70;7.47;;;13.80;57.00;;;;;;1036607;28;20018;-74
2021/03/26 02:46:22;;;;;;;38.92;8.60;;;13.70;57.00;;;;;;1038368;28;20351;-72
2021/03/26 02:47:00;;;;;;;34.20;7.95;;;13.70;57.10;;;;;;1039410;28;20025;-73
2021/03/26 02:47:40;;;;;;;32.35;7.72;;;13.70;57.30;;;;;;1035488;28;20077;-73
2021/03/26 02:48:20;;;;;;;29.38;7.38;;;13.70;57.90;;;;;;1039650;28;20049;-73
2021/03/26 02:48:56;;;;;;;44.83;8.68;;;13.60;57.40;;;;;;1037885;28;20026;-74
2021/03/26 02:49:48;;;;;;;34.88;8.30;;;13.70;57.40;;;;;;1036172;28;20023;-73
2021/03/26 02:50:41;;;;;;;29.50;8.13;;;13.70;57.40;;;;;;1033934;28;20015;-74
2021/03/26 02:51:15;;;;;;;42.33;8.00;;;13.60;57.40;;;;;;1039815;28;20022;-73
2021/03/26 02:52:09;;;;;;;38.17;8.23;;;13.70;57.30;;;;;;1039823;28;20040;-73
2021/03/26 02:52:59;;;;;;;32.63;7.63;;;13.70;57.30;;;;;;1030647;28;20027;-74
2021/03/26 02:53:57;;;;;;;39.95;8.23;;;13.70;57.30;;;;;;1030526;28;20034;-74
2021/03/26 02:54:37;;;;;;;34.20;7.75;;;13.60;57.20;;;;;;1043717;28;20348;-73
2021/03/26 02:55:30;;;;;;;34.53;7.80;;;13.70;57.20;;;;;;1046456;28;20056;-74
2021/03/26 02:56:18;;;;;;;26.08;6.50;;;13.70;57.10;;;;;;1045670;28;20048;-73
2021/03/26 02:57:01;;;;;;;38.35;7.72;;;13.60;57.30;;;;;;1038219;28;20459;-73
2021/03/26 02:57:38;;;;;;;32.80;7.47;;;13.50;57.50;;;;;;1039461;28;20108;-73
2021/03/26 02:58:26;;;;;;;31.52;7.40;;;13.60;57.40;;;;;;1037792;28;20038;-73
2021/03/26 02:59:27;;;;;;;28.60;7.40;;;13.60;57.30;;;;;;1035572;28;20027;-73
2021/03/26 03:00:14;;;;;;;36.15;7.38;;;13.50;57.30;;;;;;1017224;29;20040;-72
2021/03/26 03:01:06;;;;;;;25.50;6.80;;;13.50;57.70;;;;;;1033657;28;20072;-73